Time;durP1;ratioP1;P1;durP2;ratioP2;P2;SDS_P1;SDS_P2;PMS_P1;PMS_P2;Temp;Humidity;BMP_temperature;BMP_pressure;BME280_temperature;BME280_humidity;BME280_pressure;Samples;Min_cycle;Max_cycle;Signal;HPM_P1;HPM_P2
2022/07/05 00:02:04;;;;;;;;;1.00;1.00;;;;;17.25;100.00;101891.50;5082539;27;44801;-83
2022/07/05 00:04:29;;;;;;;;;2.75;1.50;;;;;17.24;100.00;101876.38;5083492;27;45216;-83
2022/07/05 00:09:39;;;;;;;;;2.00;2.00;;;;;17.14;100.00;101876.22;5079647;28;45291;-83
2022/07/05 00:12:04;;;;;;;;;1.00;1.00;;;;;17.10;100.00;101872.06;5080353;27;44893;-83
2022/07/05 00:14:30;;;;;;;;;2.00;2.00;;;;;17.06;100.00;101872.41;5080922;27;45358;-83
2022/07/05 00:16:55;;;;;;;;;1.50;1.00;;;;;17.00;100.00;101873.72;5078877;27;45333;-83
2022/07/05 00:19:21;;;;;;;;;1.00;1.00;;;;;16.95;100.00;101882.13;5079153;27;45363;-83
2022/07/05 00:21:47;;;;;;;;;2.00;1.00;;;;;16.85;100.00;101878.44;5078745;28;45548;-82
2022/07/05 00:24:12;;;;;;;;;1.75;1.00;;;;;16.87;100.00;101878.31;5078807;27;45304;-83
2022/07/05 00:26:37;;;;;;;;;2.50;2.00;;;;;16.75;100.00;101884.63;5078599;28;44903;-82
2022/07/05 00:29:03;;;;;;;;;1.25;1.25;;;;;16.76;100.00;101879.13;5077708;27;45486;-83
2022/07/05 00:31:28;;;;;;;;;1.00;1.00;;;;;16.78;100.00;101877.19;5078346;27;44772;-83
2022/07/05 00:33:53;;;;;;;;;2.50;1.50;;;;;16.77;100.00;101886.19;5078565;27;45384;-82
2022/07/05 00:36:19;;;;;;;;;1.00;0.00;;;;;16.75;100.00;101876.56;5080256;28;45324;-83
2022/07/05 00:38:44;;;;;;;;;3.00;2.00;;;;;16.70;100.00;101876.88;5081017;27;45378;-83
2022/07/05 00:41:10;;;;;;;;;2.75;2.50;;;;;16.69;100.00;101884.06;5066689;27;45393;-88
2022/07/05 00:43:35;;;;;;;;;2.00;2.00;;;;;16.60;100.00;101881.22;5066301;28;45379;-87
2022/07/05 00:46:01;;;;;;;;;2.00;2.00;;;;;16.52;100.00;101879.09;5089189;27;44813;-87
2022/07/05 00:48:26;;;;;;;;;2.00;2.00;;;;;16.61;100.00;101880.25;5071658;28;45291;-87
2022/07/05 00:50:52;;;;;;;;;3.25;2.25;;;;;16.62;100.00;101877.44;5058565;27;44817;-83
2022/07/05 00:53:17;;;;;;;;;2.00;1.00;;;;;16.56;100.00;101872.53;5058025;28;45387;-83
2022/07/05 00:55:44;;;;;;;;;1.00;1.00;;;;;16.52;100.00;101883.59;5057640;28;45273;-84
2022/07/05 00:58:11;;;;;;;;;0.00;0.00;;;;;16.35;100.00;101879.47;5058648;28;44773;-82
2022/07/05 01:00:37;;;;;;;;;1.00;1.00;;;;;16.31;100.00;101894.94;5060006;28;45402;-83
2022/07/05 01:03:03;;;;;;;;;0.80;0.80;;;;;16.25;100.00;101879.28;5059396;28;45375;-83
2022/07/05 01:05:29;;;;;;;;;1.00;1.00;;;;;16.26;100.00;101885.50;5058403;28;45461;-83
2022/07/05 01:07:56;;;;;;;;;1.00;1.00;;;;;16.26;100.00;101888.19;5061193;28;44796;-83
2022/07/05 01:10:22;;;;;;;;;2.60;2.00;;;;;16.19;100.00;101885.94;5070104;28;44806;-83
2022/07/05 01:12:47;;;;;;;;;1.80;1.00;;;;;16.18;100.00;101886.91;5066766;28;45515;-82
2022/07/05 01:15:13;;;;;;;;;2.50;2.50;;;;;16.16;100.00;101878.13;5061687;28;45448;-84
2022/07/05 01:17:39;;;;;;;;;2.00;1.75;;;;;16.17;100.00;101879.00;5059457;28;45258;-83
2022/07/05 01:20:06;;;;;;;;;2.50;1.00;;;;;16.14;100.00;101879.19;5058217;28;45624;-83
2022/07/05 01:22:51;;;;;;;;;4.20;2.80;;;;;16.01;100.00;101873.88;5057548;28;45453;-83
2022/07/05 01:25:16;;;;;;;;;2.00;2.00;;;;;16.02;100.00;101877.41;5058994;28;45316;-83
2022/07/05 01:27:42;;;;;;;;;3.00;1.00;;;;;15.94;100.00;101873.44;5060452;28;44777;-82
2022/07/05 01:30:08;;;;;;;;;2.00;2.00;;;;;15.94;100.00;101864.53;5061377;28;45490;-83
2022/07/05 01:32:33;;;;;;;;;2.25;2.25;;;;;15.90;100.00;101871.09;5060605;28;45248;-81
2022/07/05 01:34:59;;;;;;;;;2.00;2.00;;;;;15.89;100.00;101874.75;5060722;28;44897;-83
2022/07/05 01:37:25;;;;;;;;;3.00;2.00;;;;;15.81;100.00;101877.97;5057850;28;44821;-83
2022/07/05 01:39:52;;;;;;;;;2.50;2.50;;;;;15.84;100.00;101874.22;5063427;28;44911;-83
2022/07/05 01:42:18;;;;;;;;;2.00;2.00;;;;;15.79;100.00;101877.22;5064158;28;44989;-82
2022/07/05 01:44:43;;;;;;;;;4.00;3.00;;;;;15.69;100.00;101870.78;5059292;28;45192;-83
2022/07/05 01:47:09;;;;;;;;;2.25;2.00;;;;;15.68;100.00;101874.44;5059317;28;45255;-83
2022/07/05 01:49:39;;;;;;;;;2.00;2.00;;;;;15.60;100.00;101871.41;5058004;28;45223;-82
2022/07/05 01:52:09;;;;;;;;;5.20;3.00;;;;;15.56;100.00;101878.78;5056863;28;45377;-83
2022/07/05 01:54:35;;;;;;;;;3.00;1.80;;;;;15.56;100.00;101880.63;5057175;28;44907;-83
2022/07/05 01:57:01;;;;;;;;;1.00;1.00;;;;;15.51;100.00;101885.44;5055304;28;45560;-83
2022/07/05 01:59:28;;;;;;;;;2.00;2.00;;;;;15.47;100.00;101876.75;5056839;28;45473;-82
2022/07/05 02:01:53;;;;;;;;;3.20;2.00;;;;;15.42;100.00;101871.75;5057033;28;45461;-83
2022/07/05 02:04:19;;;;;;;;;2.00;2.00;;;;;15.34;100.00;101866.03;5058100;28;45296;-82
2022/07/05 02:06:47;;;;;;;;;4.20;3.80;;;;;15.31;100.00;101879.63;5056269;28;45264;-83
2022/07/05 02:09:13;;;;;;;;;2.00;2.00;;;;;15.31;100.00;101873.44;5056293;28;44898;-82
2022/07/05 02:11:38;;;;;;;;;4.00;4.00;;;;;15.27;100.00;101871.91;5057708;28;45052;-83
2022/07/05 02:14:04;;;;;;;;;1.00;1.00;;;;;15.27;100.00;101875.44;5060459;28;45421;-83
2022/07/05 02:16:29;;;;;;;;;1.50;1.50;;;;;15.27;100.00;101875.44;5060395;28;44725;-83
2022/07/05 02:18:55;;;;;;;;;2.50;1.00;;;;;15.19;100.00;101885.84;5060643;28;45558;-84
2022/07/05 02:21:21;;;;;;;;;2.50;2.50;;;;;15.13;100.00;101895.16;5057351;28;45002;-82
2022/07/05 02:23:46;;;;;;;;;3.00;3.00;;;;;15.01;100.00;101892.44;5057264;28;44780;-82
2022/07/05 02:26:12;;;;;;;;;3.25;3.25;;;;;14.97;100.00;101886.41;5056980;28;45451;-83
2022/07/05 02:28:37;;;;;;;;;3.00;3.00;;;;;14.96;100.00;101886.53;5056399;28;45377;-83
2022/07/05 02:31:03;;;;;;;;;2.00;2.00;;;;;14.94;100.00;101891.09;5056319;28;45174;-83
2022/07/05 02:33:28;;;;;;;;;6.25;3.00;;;;;14.90;100.00;101895.84;5056944;28;44900;-82
2022/07/05 02:35:54;;;;;;;;;3.75;2.00;;;;;14.84;100.00;101878.38;5060226;28;45376;-83
2022/07/05 02:38:19;;;;;;;;;3.00;3.00;;;;;14.88;100.00;101889.69;5062468;28;44887;-83
2022/07/05 02:40:45;;;;;;;;;4.25;3.25;;;;;14.83;100.00;101898.03;5037038;28;45400;-82
2022/07/05 02:43:10;;;;;;;;;4.00;4.00;;;;;14.83;100.00;101890.00;5036098;28;45456;-83
2022/07/05 02:45:35;;;;;;;;;3.00;3.00;;;;;14.76;100.00;101903.91;5040701;28;44974;-83
2022/07/05 02:48:01;;;;;;;;;1.00;1.00;;;;;14.78;100.00;101884.09;5038331;28;45355;-83
2022/07/05 02:50:26;;;;;;;;;2.75;2.50;;;;;14.74;100.00;101884.41;5036595;28;45284;-83
2022/07/05 02:52:52;;;;;;;;;3.25;2.25;;;;;14.83;100.00;101892.69;5036552;28;44872;-83
2022/07/05 02:55:17;;;;;;;;;4.50;4.50;;;;;14.78;100.00;101885.94;5036355;28;44836;-83
2022/07/05 02:57:43;;;;;;;;;3.75;2.25;;;;;14.80;100.00;101889.38;5036185;28;45598;-83
2022/07/05 03:00:09;;;;;;;;;7.00;2.50;;;;;14.75;100.00;101880.81;5037660;28;45347;-82
2022/07/05 03:02:34;;;;;;;;;2.00;2.00;;;;;14.72;100.00;101894.38;5039290;28;44680;-83
2022/07/05 03:05:00;;;;;;;;;7.00;4.00;;;;;14.75;100.00;101892.34;5038675;28;45331;-82
2022/07/05 03:07:25;;;;;;;;;2.50;2.50;;;;;14.69;100.00;101894.56;5039177;28;45379;-83
2022/07/05 03:09:50;;;;;;;;;5.75;3.00;;;;;14.72;100.00;101902.38;5037873;28;45740;-83
2022/07/05 03:12:16;;;;;;;;;4.50;2.00;;;;;14.74;100.00;101901.31;5037019;28;45407;-83
2022/07/05 03:14:41;;;;;;;;;3.75;3.00;;;;;14.70;100.00;101896.25;5036964;28;45266;-83
2022/07/05 03:17:06;;;;;;;;;2.75;2.75;;;;;14.67;100.00;101899.16;5037864;28;45352;-83
2022/07/05 03:19:32;;;;;;;;;3.50;3.50;;;;;14.62;100.00;101912.84;5040325;28;45396;-83
2022/07/05 03:21:57;;;;;;;;;4.00;3.50;;;;;14.58;100.00;101897.94;5035860;28;44930;-83
2022/07/05 03:24:23;;;;;;;;;9.25;5.00;;;;;14.60;100.00;101907.59;5035574;28;45312;-83
2022/07/05 03:26:48;;;;;;;;;4.00;4.00;;;;;14.61;100.00;101903.97;5035527;28;45534;-83
2022/07/05 03:29:14;;;;;;;;;4.75;3.25;;;;;14.62;100.00;101897.63;5035747;28;45365;-83
2022/07/05 03:31:39;;;;;;;;;5.75;5.75;;;;;14.66;100.00;101914.34;5037240;28;45422;-83
2022/07/05 03:34:04;;;;;;;;;4.25;3.50;;;;;14.63;100.00;101902.03;5041038;28;44802;-83
2022/07/05 03:36:30;;;;;;;;;4.75;3.00;;;;;14.60;100.00;101912.94;5041250;28;45423;-83
2022/07/05 03:38:55;;;;;;;;;6.00;2.75;;;;;14.56;100.00;101903.41;5036253;28;45347;-83
2022/07/05 03:41:21;;;;;;;;;5.50;5.50;;;;;14.56;100.00;101922.13;5054020;28;45329;-83
2022/07/05 03:43:46;;;;;;;;;2.00;1.00;;;;;14.55;100.00;101923.09;5055620;28;45230;-83
2022/07/05 03:46:12;;;;;;;;;4.00;4.00;;;;;14.56;100.00;101924.78;5055629;28;45240;-83
2022/07/05 03:48:37;;;;;;;;;9.25;6.00;;;;;14.59;100.00;101918.38;5055745;28;46126;-82
2022/07/05 03:51:03;;;;;;;;;5.75;3.50;;;;;14.59;100.00;101929.91;5058902;28;44919;-84
2022/07/05 03:53:28;;;;;;;;;6.00;4.50;;;;;14.53;100.00;101932.16;5058706;28;45570;-82
2022/07/05 03:55:54;;;;;;;;;7.25;5.50;;;;;14.52;100.00;101933.97;5061400;28;45518;-83
2022/07/05 03:58:19;;;;;;;;;8.00;5.00;;;;;14.52;100.00;101933.09;5059786;28;45343;-82
2022/07/05 04:00:45;;;;;;;;;3.50;2.25;;;;;14.53;100.00;101929.47;5058953;28;45398;-83
2022/07/05 04:03:11;;;;;;;;;7.00;4.25;;;;;14.57;100.00;101937.19;5057385;28;44852;-83
2022/07/05 04:05:36;;;;;;;;;3.25;2.00;;;;;14.55;100.00;101936.47;5058885;28;45547;-82
2022/07/05 04:08:02;;;;;;;;;4.25;4.25;;;;;14.60;100.00;101944.16;5058595;28;45105;-82
2022/07/05 04:10:27;;;;;;;;;5.75;5.75;;;;;14.67;100.00;101944.63;5056796;28;45261;-83
2022/07/05 04:12:53;;;;;;;;;4.50;4.50;;;;;14.73;100.00;101941.56;5059187;28;45365;-83
2022/07/05 04:15:18;;;;;;;;;4.00;3.00;;;;;14.75;100.00;101955.69;5061383;28;44901;-83
2022/07/05 04:17:47;;;;;;;;;5.50;5.50;;;;;14.73;100.00;101944.22;5059088;28;45489;-82
2022/07/05 04:20:15;;;;;;;;;5.00;5.00;;;;;14.86;100.00;101950.50;5059686;28;45216;-82
2022/07/05 04:22:40;;;;;;;;;9.80;6.60;;;;;14.99;100.00;101953.22;5059104;27;45426;-81
2022/07/05 04:25:18;;;;;;;;;5.25;4.00;;;;;14.98;100.00;101956.84;5059731;28;45350;-82
2022/07/05 04:27:44;;;;;;;;;7.25;4.00;;;;;15.12;100.00;101940.72;5060444;28;45042;-82
2022/07/05 04:30:10;;;;;;;;;7.20;5.40;;;;;15.30;100.00;101950.22;5058761;28;45508;-81
2022/07/05 04:32:35;;;;;;;;;10.50;7.25;;;;;15.38;100.00;101944.34;5059647;28;45344;-82
2022/07/05 04:35:01;;;;;;;;;5.00;5.00;;;;;15.41;100.00;101946.81;5059375;28;45403;-81
2022/07/05 04:37:27;;;;;;;;;5.50;4.50;;;;;15.29;100.00;101945.81;5057969;28;45355;-82
2022/07/05 04:39:52;;;;;;;;;4.00;4.00;;;;;15.32;100.00;101947.41;5057551;28;45427;-82
2022/07/05 04:42:18;;;;;;;;;6.75;5.50;;;;;15.42;100.00;101946.72;5059980;28;45443;-81
2022/07/05 04:44:43;;;;;;;;;5.00;2.75;;;;;15.55;100.00;101945.88;5061557;28;45359;-82
2022/07/05 04:47:09;;;;;;;;;4.50;4.00;;;;;15.56;100.00;101947.56;5057854;28;45420;-81
2022/07/05 04:49:34;;;;;;;;;7.50;4.25;;;;;15.68;100.00;101939.59;5057514;28;45393;-82
2022/07/05 04:52:00;;;;;;;;;3.75;3.25;;;;;15.86;100.00;101945.50;5057024;28;45256;-82
2022/07/05 04:54:25;;;;;;;;;6.25;5.25;;;;;16.02;100.00;101944.44;5056279;28;44852;-82
2022/07/05 04:56:50;;;;;;;;;5.50;3.25;;;;;16.13;100.00;101942.69;5061478;28;45507;-81
2022/07/05 04:59:16;;;;;;;;;7.00;5.25;;;;;15.92;100.00;101941.53;5064175;28;44721;-81
2022/07/05 05:01:41;;;;;;;;;9.50;5.75;;;;;15.87;100.00;101943.69;5062514;28;44844;-81
2022/07/05 05:04:06;;;;;;;;;6.75;6.25;;;;;15.96;100.00;101951.09;5060854;28;45408;-82
2022/07/05 05:06:32;;;;;;;;;4.25;4.25;;;;;16.00;100.00;101954.38;5058759;28;45565;-81
2022/07/05 05:08:57;;;;;;;;;5.00;4.00;;;;;15.95;100.00;101949.34;5057599;28;45452;-82
2022/07/05 05:11:22;;;;;;;;;7.25;3.00;;;;;16.00;100.00;101947.19;5057578;28;45252;-82
2022/07/05 05:13:48;;;;;;;;;6.00;5.25;;;;;16.12;100.00;101943.66;5056338;28;45487;-82
2022/07/05 05:16:13;;;;;;;;;7.25;5.25;;;;;16.38;100.00;101952.50;5057342;28;45223;-82
2022/07/05 05:18:39;;;;;;;;;6.00;5.00;;;;;16.47;100.00;101944.78;5056321;28;44858;-82
2022/07/05 05:21:04;;;;;;;;;5.75;4.00;;;;;16.52;100.00;101948.84;5057928;28;44828;-82
2022/07/05 05:23:29;;;;;;;;;6.25;4.50;;;;;16.69;100.00;101952.97;5057864;28;45317;-82
2022/07/05 05:25:55;;;;;;;;;6.00;5.00;;;;;16.63;100.00;101945.38;5057992;28;44988;-82
2022/07/05 05:28:20;;;;;;;;;5.25;3.00;;;;;16.59;100.00;101938.53;5057689;28;45403;-82
2022/07/05 05:30:46;;;;;;;;;7.75;6.25;;;;;16.67;100.00;101953.06;5059798;28;44854;-82
2022/07/05 05:33:12;;;;;;;;;4.80;4.20;;;;;16.86;100.00;101955.31;5063829;28;44858;-82
2022/07/05 05:35:37;;;;;;;;;7.75;5.25;;;;;16.93;100.00;101950.34;5058635;28;45342;-82
2022/07/05 05:38:03;;;;;;;;;6.25;6.25;;;;;16.77;100.00;101955.97;5055482;28;45201;-82
2022/07/05 05:40:29;;;;;;;;;4.00;4.00;;;;;17.03;100.00;101956.75;5057610;28;45549;-82
2022/07/05 05:42:56;;;;;;;;;4.25;4.25;;;;;17.14;100.00;101966.69;5057215;28;45210;-82
2022/07/05 05:45:22;;;;;;;;;7.20;6.20;;;;;17.26;100.00;101956.81;5057006;28;45495;-82
2022/07/05 05:47:57;;;;;;;;;6.50;5.25;;;;;17.49;100.00;101961.31;5057549;28;45322;-82
2022/07/05 05:50:25;;;;;;;;;0.00;0.00;;;;;17.52;100.00;101968.28;5057499;28;45382;-83
2022/07/05 05:52:51;;;;;;;;;4.20;3.40;;;;;17.39;100.00;101965.66;5057360;28;45446;-82
2022/07/05 05:55:17;;;;;;;;;8.00;5.00;;;;;17.42;100.00;101974.38;5056844;28;45445;-82
2022/07/05 05:57:43;;;;;;;;;8.20;6.20;;;;;17.38;100.00;101980.09;5056404;28;45164;-82
2022/07/05 06:00:10;;;;;;;;;8.00;6.25;;;;;17.46;100.00;101975.84;5056542;28;45634;-82
2022/07/05 06:02:35;;;;;;;;;8.80;7.20;;;;;17.60;100.00;101972.09;5056869;28;44744;-83
2022/07/05 06:05:00;;;;;;;;;7.50;6.25;;;;;17.60;100.00;101974.78;5057101;28;45141;-82
2022/07/05 06:07:26;;;;;;;;;6.00;4.50;;;;;17.65;100.00;101986.03;5056783;28;44703;-82
2022/07/05 06:09:51;;;;;;;;;6.50;5.00;;;;;17.55;100.00;101978.78;5055223;28;45485;-82
2022/07/05 06:12:17;;;;;;;;;6.75;6.75;;;;;17.72;100.00;101981.91;5056302;28;45622;-82
2022/07/05 06:14:42;;;;;;;;;8.50;7.25;;;;;17.65;100.00;101988.75;5056376;28;45488;-82
2022/07/05 06:17:07;;;;;;;;;5.50;5.50;;;;;17.83;100.00;101977.56;5055400;28;45413;-82
2022/07/05 06:19:33;;;;;;;;;7.00;6.25;;;;;17.95;100.00;101969.41;5056814;28;45122;-82
2022/07/05 06:21:58;;;;;;;;;7.25;7.25;;;;;18.11;100.00;101966.34;5057378;28;45433;-82
2022/07/05 06:24:23;;;;;;;;;6.25;5.75;;;;;18.31;100.00;101971.97;5056221;28;45398;-83
2022/07/05 06:26:49;;;;;;;;;8.75;8.25;;;;;18.21;100.00;101971.84;5056531;28;45518;-83
2022/07/05 06:29:14;;;;;;;;;6.50;6.50;;;;;18.24;100.00;101979.69;5056017;28;45253;-82
2022/07/05 06:31:39;;;;;;;;;9.25;8.50;;;;;18.40;100.00;101982.84;5054761;28;45499;-83
2022/07/05 06:34:05;;;;;;;;;9.50;8.25;;;;;18.52;100.00;101970.25;5056030;28;45332;-82
2022/07/05 06:36:30;;;;;;;;;9.50;7.25;;;;;18.70;100.00;101966.09;5056581;28;44828;-82
2022/07/05 06:38:55;;;;;;;;;9.50;7.75;;;;;18.32;100.00;101977.22;5058296;28;44785;-83
2022/07/05 06:41:21;;;;;;;;;11.50;9.25;;;;;18.62;100.00;101979.31;5058173;28;44952;-82
2022/07/05 06:43:46;;;;;;;;;4.00;4.00;;;;;18.57;100.00;101981.50;5055855;28;45108;-82
2022/07/05 06:46:12;;;;;;;;;7.00;7.00;;;;;18.53;100.00;101985.44;5055691;28;45473;-82
2022/07/05 06:48:37;;;;;;;;;9.75;6.50;;;;;18.70;100.00;101973.31;5055424;28;45230;-82
2022/07/05 06:51:02;;;;;;;;;9.25;8.25;;;;;18.37;100.00;101980.44;5055519;28;44936;-81
2022/07/05 06:53:28;;;;;;;;;8.00;6.75;;;;;18.25;100.00;101984.09;5054347;28;45372;-82
2022/07/05 06:55:53;;;;;;;;;7.75;7.75;;;;;18.53;100.00;101982.72;5055825;28;45268;-81
2022/07/05 06:58:19;;;;;;;;;9.00;9.00;;;;;18.74;100.00;101981.00;5055462;28;45354;-81
2022/07/05 07:00:45;;;;;;;;;4.75;4.75;;;;;18.55;100.00;101983.44;5055687;28;44788;-81
2022/07/05 07:03:10;;;;;;;;;9.75;7.75;;;;;18.87;100.00;101990.78;5055121;28;45354;-81
2022/07/05 07:05:36;;;;;;;;;14.50;9.25;;;;;19.06;100.00;101988.28;5055526;28;45371;-81
2022/07/05 07:10:45;;;;;;;;;11.60;7.80;;;;;19.20;100.00;101977.22;5049055;28;45357;-81
2022/07/05 07:13:11;;;;;;;;;11.50;7.75;;;;;19.44;100.00;101973.44;5039412;28;45296;-81
2022/07/05 07:15:37;;;;;;;;;9.50;8.50;;;;;19.55;100.00;101981.47;5042679;28;44947;-81
2022/07/05 07:18:03;;;;;;;;;10.00;8.20;;;;;19.50;100.00;101972.91;5042559;28;45455;-82
2022/07/05 07:20:29;;;;;;;;;6.75;6.75;;;;;19.55;100.00;101977.94;5045177;27;45513;-81
2022/07/05 07:22:54;;;;;;;;;11.00;9.25;;;;;19.64;100.00;101980.72;5036614;28;45025;-81
2022/07/05 07:25:20;;;;;;;;;11.25;10.50;;;;;19.84;100.00;101987.09;5038835;28;45331;-83
2022/07/05 07:27:50;;;;;;;;;9.00;7.25;;;;;19.86;100.00;101985.09;5055821;28;45605;-81
2022/07/05 07:30:18;;;;;;;;;8.20;7.40;;;;;19.87;100.00;101985.97;5056682;28;45416;-82
2022/07/05 07:32:44;;;;;;;;;5.20;4.20;;;;;20.04;100.00;101979.97;5045598;28;46376;-81
2022/07/05 07:35:10;;;;;;;;;10.60;8.40;;;;;20.03;100.00;101986.34;5055273;28;44786;-81
2022/07/05 07:37:36;;;;;;;;;8.75;7.50;;;;;20.43;100.00;101985.53;5058453;28;44887;-81
2022/07/05 07:40:03;;;;;;;;;7.60;7.20;;;;;20.47;100.00;101984.31;5055340;28;45571;-81
2022/07/05 07:42:29;;;;;;;;;10.20;8.20;;;;;20.61;100.00;101978.53;5068640;28;45381;-80
2022/07/05 07:44:54;;;;;;;;;10.25;9.25;;;;;20.93;100.00;101989.09;5060473;28;45356;-81
2022/07/05 07:47:19;;;;;;;;;10.25;8.75;;;;;21.07;100.00;101990.56;5057146;28;45512;-81
2022/07/05 07:49:45;;;;;;;;;7.50;7.50;;;;;20.90;100.00;101985.84;5038909;28;45272;-81
2022/07/05 07:52:11;;;;;;;;;5.00;4.00;;;;;20.92;100.00;101991.97;5038321;28;46138;-81
2022/07/05 07:54:36;;;;;;;;;10.25;8.50;;;;;21.03;100.00;101990.00;5038145;28;44924;-81
2022/07/05 07:57:04;;;;;;;;;5.75;5.75;;;;;21.04;100.00;101991.72;5038262;28;45471;-81
2022/07/05 07:59:30;;;;;;;;;7.80;7.00;;;;;21.24;100.00;101989.88;5056343;28;44801;-81
2022/07/05 08:01:56;;;;;;;;;9.00;8.25;;;;;21.00;100.00;101992.13;5057790;28;46110;-81
2022/07/05 08:04:21;;;;;;;;;8.50;8.00;;;;;20.90;100.00;101996.66;5058126;28;44737;-81
2022/07/05 08:06:47;;;;;;;;;9.00;7.50;;;;;21.03;100.00;101995.41;5058323;28;45233;-81
2022/07/05 08:09:13;;;;;;;;;12.25;9.50;;;;;21.21;100.00;101990.16;5057728;28;45261;-81
2022/07/05 08:11:39;;;;;;;;;5.40;4.60;;;;;20.61;100.00;101991.19;5041267;28;45381;-81
2022/07/05 08:14:04;;;;;;;;;9.50;8.50;;;;;20.42;100.00;101994.63;5060154;28;45298;-81
2022/07/05 08:16:29;;;;;;;;;15.00;11.75;;;;;20.28;100.00;101985.06;5047907;28;45806;-81
2022/07/05 08:21:39;;;;;;;;;14.20;10.40;;;;;20.38;100.00;101988.66;5057320;28;44909;-81
2022/07/05 08:24:07;;;;;;;;;8.75;8.75;;;;;20.60;100.00;101979.53;5038363;28;45421;-81
2022/07/05 08:26:33;;;;;;;;;14.40;10.80;;;;;20.21;100.00;101986.56;5037765;28;45480;-81
2022/07/05 08:29:01;;;;;;;;;10.00;9.00;;;;;20.24;100.00;101981.75;5038935;28;45360;-81
2022/07/05 08:31:28;;;;;;;;;9.20;9.20;;;;;20.62;100.00;101984.78;5038624;28;46314;-82
2022/07/05 08:33:53;;;;;;;;;10.40;9.00;;;;;20.83;100.00;101979.28;5042867;28;45305;-81
2022/07/05 08:36:19;;;;;;;;;5.50;5.50;;;;;20.77;100.00;101983.41;5058958;28;44746;-81
2022/07/05 08:38:44;;;;;;;;;6.25;6.25;;;;;20.81;100.00;101976.72;5055066;28;45161;-81
2022/07/05 08:41:11;;;;;;;;;6.75;6.00;;;;;20.95;100.00;101987.13;5053445;28;45245;-81
2022/07/05 08:43:41;;;;;;;;;8.60;6.20;;;;;21.20;100.00;101976.78;5059397;28;44822;-81
2022/07/05 08:46:11;;;;;;;;;10.40;9.60;;;;;21.23;100.00;101982.75;5052482;28;45231;-82
2022/07/05 08:48:44;;;;;;;;;9.00;8.60;;;;;21.27;100.00;101973.38;5048247;28;45328;-81
2022/07/05 08:51:12;;;;;;;;;7.40;7.20;;;;;21.37;100.00;101980.63;5058540;28;45301;-82
2022/07/05 08:53:39;;;;;;;;;7.40;5.60;;;;;20.95;100.00;101979.03;5056658;28;45478;-82
2022/07/05 08:56:06;;;;;;;;;5.20;5.20;;;;;20.99;100.00;101975.06;5050984;28;44784;-81
2022/07/05 08:58:32;;;;;;;;;4.60;4.00;;;;;21.13;100.00;101979.22;5051724;28;44886;-81
2022/07/05 09:00:59;;;;;;;;;8.25;6.75;;;;;21.22;100.00;101978.34;5055486;28;45830;-82
2022/07/05 09:03:31;;;;;;;;;9.00;8.00;;;;;21.24;100.00;101968.25;5041126;28;45307;-81
2022/07/05 09:05:59;;;;;;;;;10.40;7.20;;;;;21.15;100.00;101977.19;5057315;28;44719;-82
2022/07/05 09:08:29;;;;;;;;;6.60;6.40;;;;;21.25;100.00;101969.94;5057094;28;44792;-82
2022/07/05 09:10:54;;;;;;;;;12.80;8.80;;;;;21.20;100.00;101968.66;5058804;28;45237;-81
2022/07/05 09:13:20;;;;;;;;;8.00;6.25;;;;;20.96;100.00;101967.22;5057331;28;45362;-81
2022/07/05 09:15:46;;;;;;;;;6.25;5.00;;;;;21.08;100.00;101967.97;5052442;28;45501;-81
2022/07/05 09:18:11;;;;;;;;;7.80;7.60;;;;;21.21;100.00;101973.94;5042514;28;44854;-81
2022/07/05 09:20:37;;;;;;;;;9.75;6.00;;;;;21.42;100.00;101971.13;5042493;28;45220;-81
2022/07/05 09:23:02;;;;;;;;;5.25;5.25;;;;;21.60;100.00;101970.38;5045326;28;45228;-81
2022/07/05 09:25:30;;;;;;;;;4.25;4.25;;;;;21.62;100.00;101973.81;5039756;28;45246;-82
2022/07/05 09:27:55;;;;;;;;;5.00;5.00;;;;;21.53;100.00;101972.81;5052297;28;45697;-82
2022/07/05 09:30:37;;;;;;;;;6.75;4.75;;;;;21.38;100.00;101964.28;5043502;28;45031;-81
2022/07/05 09:33:20;;;;;;;;;9.20;8.00;;;;;21.44;100.00;101977.25;5056794;28;44682;-81
2022/07/05 09:35:54;;;;;;;;;7.80;5.60;;;;;21.46;100.00;101968.97;5055724;28;44939;-81
2022/07/05 09:38:22;;;;;;;;;6.40;4.00;;;;;21.55;100.00;101968.97;5058128;28;44956;-81
2022/07/05 09:40:53;;;;;;;;;7.00;5.00;;;;;21.59;100.00;101971.38;5057377;28;45269;-82
2022/07/05 09:43:22;;;;;;;;;5.80;5.80;;;;;21.72;100.00;101977.34;5059664;28;44857;-81
2022/07/05 09:46:02;;;;;;;;;7.20;6.20;;;;;21.70;100.00;101966.66;5058571;28;45242;-82
2022/07/05 09:48:32;;;;;;;;;7.40;5.40;;;;;21.90;100.00;101975.59;5056634;28;44778;-82
2022/07/05 09:51:24;;;;;;;;;4.60;4.60;;;;;21.80;100.00;101974.75;5056874;28;45283;-82
2022/07/05 09:53:57;;;;;;;;;8.40;6.80;;;;;21.84;100.00;101975.31;5051314;28;45435;-82
2022/07/05 09:56:26;;;;;;;;;10.60;7.60;;;;;21.78;100.00;101974.06;5056632;28;45339;-82
2022/07/05 09:58:51;;;;;;;;;7.80;7.40;;;;;21.72;100.00;101972.78;5056091;28;44932;-82
2022/07/05 10:01:26;;;;;;;;;5.75;5.00;;;;;21.82;100.00;101978.19;5056353;28;45088;-82
2022/07/05 10:03:57;;;;;;;;;8.80;5.60;;;;;22.01;100.00;101971.88;5056413;28;45242;-82
2022/07/05 10:06:24;;;;;;;;;6.80;6.60;;;;;22.11;100.00;101971.84;5056751;28;44853;-82
2022/07/05 10:08:50;;;;;;;;;8.20;6.40;;;;;22.20;100.00;101974.56;5056615;28;44852;-82
2022/07/05 10:11:20;;;;;;;;;4.75;4.75;;;;;22.01;100.00;101980.84;5059782;28;45098;-82
2022/07/05 10:13:50;;;;;;;;;9.00;6.40;;;;;22.21;100.00;101973.53;5058264;28;45493;-82
2022/07/05 10:16:17;;;;;;;;;8.60;5.80;;;;;22.26;100.00;101973.94;5056600;28;44976;-82
2022/07/05 10:18:46;;;;;;;;;6.00;4.60;;;;;22.16;100.00;101969.56;5056300;28;44847;-82
2022/07/05 10:21:14;;;;;;;;;7.80;6.00;;;;;22.15;100.00;101973.28;5056267;28;45030;-82
2022/07/05 10:23:43;;;;;;;;;4.80;4.40;;;;;22.08;100.00;101991.91;5056258;28;44790;-81
2022/07/05 10:26:11;;;;;;;;;8.80;7.60;;;;;22.09;100.00;101974.69;5057241;28;44776;-82
2022/07/05 10:28:39;;;;;;;;;9.00;6.00;;;;;21.83;100.00;101990.72;5059222;28;44957;-82
2022/07/05 10:31:08;;;;;;;;;8.60;6.60;;;;;21.90;100.00;101986.41;5059096;28;45491;-81
2022/07/05 10:33:34;;;;;;;;;6.80;5.80;;;;;22.22;100.00;101974.38;5056836;28;45417;-81
2022/07/05 10:36:01;;;;;;;;;5.75;5.00;;;;;22.46;100.00;101984.69;5055995;28;44750;-82
2022/07/05 10:38:27;;;;;;;;;5.20;5.20;;;;;22.57;100.00;101984.47;5056766;28;45489;-81
2022/07/05 10:40:57;;;;;;;;;5.20;5.20;;;;;22.81;100.00;101978.50;5057758;28;45464;-82
2022/07/05 10:43:24;;;;;;;;;13.80;9.20;;;;;23.07;99.63;101963.25;5058128;28;44766;-82
2022/07/05 10:45:50;;;;;;;;;9.60;8.40;;;;;23.00;96.29;101977.56;5055914;28;44821;-82
2022/07/05 10:48:18;;;;;;;;;4.00;3.40;;;;;22.88;97.24;101970.63;5055730;28;45476;-82
2022/07/05 10:50:45;;;;;;;;;5.80;5.80;;;;;23.05;96.17;101961.69;5055926;28;45557;-82
2022/07/05 10:53:12;;;;;;;;;8.20;7.00;;;;;23.00;97.08;101964.84;5056271;28;44834;-82
2022/07/05 10:56:14;;;;;;;;;7.00;6.00;;;;;23.00;98.03;101964.00;5055744;28;45355;-82
2022/07/05 10:58:44;;;;;;;;;7.60;6.60;;;;;22.87;98.49;101963.47;5056623;28;45456;-81
2022/07/05 11:01:15;;;;;;;;;7.00;7.00;;;;;22.78;99.59;101962.56;5056477;28;45406;-82
2022/07/05 11:04:02;;;;;;;;;8.00;6.00;;;;;22.79;100.00;101954.28;5056177;28;44733;-82
2022/07/05 11:06:46;;;;;;;;;6.40;6.40;;;;;23.04;99.91;101949.97;5060746;28;45201;-82
2022/07/05 11:09:11;;;;;;;;;8.20;8.20;;;;;23.27;98.13;101952.25;5059241;28;45373;-81
2022/07/05 11:11:40;;;;;;;;;8.25;7.25;;;;;23.36;94.32;101955.88;5061300;28;46325;-82
2022/07/05 11:14:25;;;;;;;;;7.40;5.80;;;;;23.57;93.62;101948.25;5062003;28;45264;-82
2022/07/05 11:17:13;;;;;;;;;4.20;4.20;;;;;23.21;97.12;101956.44;5059375;28;44903;-81
2022/07/05 11:20:25;;;;;;;;;7.80;6.20;;;;;23.51;97.01;101940.75;5059179;28;45418;-82
2022/07/05 11:23:02;;;;;;;;;7.20;7.20;;;;;23.84;92.43;101971.72;5016437;28;45075;-82
2022/07/05 11:25:30;;;;;;;;;9.00;9.00;;;;;23.97;94.66;101946.81;5015860;28;45428;-82